Main page
METAR-TAF:

METAR-TAF

Airports :

Koror, Babelthuap Island, Palau

Roman Tmetuchl International Airport

latitude: 07-22N, longitude: 134-32E, elevation: 54 m

Current weather observation

The report was made 24 minutes ago, at 01:54 UTC
Wind 8 kt from the East/Southeast
Temperature 31°C
Humidity 71%
Pressure 1010 hPa
Visibility: 24.1 km
Scattered clouds at a height of 1600 ft, Towering cumulus.
Scattered clouds at a height of 12000 ft
Broken clouds at a height of 30000 ft

METAR: PTRO 270154Z 11008KT 15SM SCT016TCU SCT120 BKN300 31/25 A2982 RMK TCU VC SW-NE

Time: 11:18 (02:18 UTC)

Forecast

The report was made 2 hours and 58 minutes ago, at 23:20 UTC
Forecast valid from 27 at 00 UTC to 27 at 24 UTC
Wind 7 kt from the East/Northeast
Visibility: 10 km
Scattered clouds at a height of 1600 ft
Scattered clouds at a height of 12000 ft
Broken clouds at a height of 30000 ft
showers in vicinity

TAF: PTRO 262320Z 2700/2724 07007KT P6SM VCSH SCT016 SCT120 BKN300

Weather observations and forecasts of more than 4000 airports (METAR and TAF reports).

The available stations are represented by yellow and red dots on the map.

Hover mouse over dot to see the name of the station.

Then click to see weather observations and forecasts.

To change the map : click on the green buttons with a black cross to zoom in, on the green button with a dash to zoom out, or on the green arrows for adjacent maps.


METAR-TAF: